Reriutaba, Brazil
Current Conditions -  °F | °C
As of 11:00 PM on Friday 28 Nov 2014 (Local Time) from SBPB Reporting Station
Scattered Clouds Scattered Clouds  
Wind Chill: 82°   Ceiling: Unl
Heat Index: 89°   Visibility: 6mi
Dew Point: 75°   Wind: 14mph
Humidity: 79%   Direction: 90°E
Pressure: 29.83"   Gusts: NA
Location:  4.14°S, 40.58°W
Report Text: SBPB 290200Z 09012KT 9999 FEW020 SCT100 28/24 Q1010
Loading
Personal Weather Stations






























Interactive Weather Map New forecast layout! Learn more

10-Day Weather Forecast

Advertisements
Track Severe Weather on mobile